Buoy 46611

sailwx.info

Track history (hours):
 
Tides and Currents Weather Stations Pressure Air Temp Water Temp Dewpoint Dewpoint Depression Visibility Wind Speed Wind Dir Waves Ship Positions

Drifting buoy 46611

Last reported at 2014-Oct-24 15:00 UTC. Time now 2014-Oct-24 16:55 UTC.
Position N 50°47' W 137°43'.

Barometer 1007.0 mb
Water temperature 12.7 ° C

Date/timePositionNaut miles runAvg speedWind from/ knotsBaromVisibWave heightAir tempDewpointWater temp
2014-Oct-24 15:00N 50°47' W 137°43'0 0.4 1007.0 12.7
2014-Oct-24 14:00N 50°47' W 137°44'0 0.2 1006.5 12.6
2014-Oct-24 13:00N 50°47' W 137°43'2 1.2 1005.9 12.7
2014-Oct-24 11:00N 50°49' W 137°45'0 0.0 1004.6 12.7
2014-Oct-24 09:00N 50°49' W 137°45'0 0.0 1003.1 12.7
2014-Oct-24 07:00N 50°49' W 137°45'0 0.0 1001.9 12.7
2014-Oct-24 06:00N 50°49' W 137°45'0 0.0 1001.2 12.7
2014-Oct-24 05:00N 50°49' W 137°45'0 0.0 1000.4 12.7
2014-Oct-24 04:00N 50°49' W 137°45'0 0.5 999.4 12.7
2014-Oct-24 03:00N 50°49' W 137°45'0 0.0 997.8 12.7
2014-Oct-24 02:00N 50°49' W 137°45'0 0.4 996.0 12.7
2014-Oct-24 01:00N 50°49' W 137°45'1 0.7 993.4 12.7
2014-Oct-23 23:00N 50°48' W 137°47'0 0.0 991.8 12.7
2014-Oct-23 22:00N 50°48' W 137°47'1 0.6 991.9 12.7
2014-Oct-23 20:00N 50°46' W 137°47'1 0.2 995.5 12.7
2014-Oct-23 17:00N 50°47' W 137°48'1 0.6 995.7 12.8
2014-Oct-23 15:00N 50°47' W 137°49'3 1.5 995.5 12.8
2014-Oct-23 13:00N 50°47' W 137°54'4 1.8 994.9 12.8
2014-Oct-23 11:00N 50°45' W 137°50'1 1.5 994.2 12.8
2014-Oct-23 10:00N 50°46' W 137°51'0 0.0 994.0 12.8
2014-Oct-23 07:00N 50°46' W 137°51'0 0.0 993.0 12.9
2014-Oct-23 06:00N 50°46' W 137°51'0 0.2 992.8 12.9
2014-Oct-23 05:00N 50°46' W 137°51'0 0.0 992.5 12.9
2014-Oct-23 04:00N 50°46' W 137°51'0 0.0 992.2 12.9
2014-Oct-23 03:00N 50°46' W 137°51'1 0.6 992.1 12.9
2014-Oct-23 01:00N 50°47' W 137°53'1 0.5 991.3 12.9
2014-Oct-22 23:00N 50°48' W 137°54'3 1.1 991.0 12.9
2014-Oct-22 20:00N 50°45' W 137°57'0 0.0 991.3 12.8
2014-Oct-22 19:00N 50°45' W 137°57'0 0.0 991.3 12.8
2014-Oct-22 17:00N 50°45' W 137°57'0 0.0 991.0 12.9
2014-Oct-22 16:00N 50°45' W 137°57'0 0.4 990.4 12.9
2014-Oct-22 15:00N 50°45' W 137°56'3 3.5 990.5 12.9
2014-Oct-22 14:00N 50°47' W 137°59'0 0.0 990.8 12.9
2014-Oct-22 13:00N 50°47' W 137°59'0 0.0 990.9 12.9
2014-Oct-22 12:00N 50°47' W 137°59'0 0.0 991.2 12.9
2014-Oct-22 11:00N 50°47' W 137°59'0 0.0 991.0 12.9
2014-Oct-22 10:00N 50°47' W 137°59'0 0.0 991.0 12.9
2014-Oct-22 07:00N 50°47' W 137°59'2 2.4 990.1 12.9
2014-Oct-22 06:00N 50°46' W 138°03'2 0.9 989.7 12.9
2014-Oct-22 04:00N 50°44' W 138°02'0 0.0 988.8 12.9
2014-Oct-22 03:00N 50°44' W 138°02'0 0.0 988.4 12.9
2014-Oct-22 02:00N 50°44' W 138°02'0 0.4 988.0 13.0
2014-Oct-22 01:00N 50°45' W 138°02'0 0.1 987.3 13.0
2014-Oct-22 00:00N 50°45' W 138°02'4 2.0 986.6 13.1
2014-Oct-21 22:00N 50°48' W 138°07'7 2.4 985.1 13.0
2014-Oct-21 19:00N 50°48' W 138°18'0 0.1 982.4 13.1
2014-Oct-21 14:00N 50°48' W 138°19'2 1.0 978.1 13.2
2014-Oct-21 12:00N 50°47' W 138°21'1 0.4 977.8 13.3
2014-Oct-21 10:00N 50°47' W 138°23'1 0.3 978.5 13.3
2014-Oct-21 08:00N 50°46' W 138°23'0 0.0 981.2 13.3
2014-Oct-21 07:00N 50°46' W 138°23'2 1.5 982.0 13.3
2014-Oct-21 06:00N 50°45' W 138°25'2 1.5 982.9 13.3
2014-Oct-21 05:00N 50°46' W 138°27'2 1.7 983.7 13.3
2014-Oct-21 04:00N 50°44' W 138°26'0 0.0 983.9 13.3
2014-Oct-21 03:00N 50°44' W 138°26'1 1.3 984.1 13.3
2014-Oct-21 02:00N 50°43' W 138°27'1 0.3 984.9 13.3
2014-Oct-21 00:00N 50°43' W 138°26'1 0.7 988.6 13.4
2014-Oct-20 22:00N 50°42' W 138°27'2 1.6 992.4 13.4
2014-Oct-20 21:00N 50°43' W 138°29'2 2.2 993.8 13.4
2014-Oct-20 20:00N 50°41' W 138°27'2 1.8 995.1 13.4
2014-Oct-20 19:00N 50°40' W 138°29'0 0.1 996.1 13.4
2014-Oct-20 18:00N 50°40' W 138°29'0 0.0 996.7 13.4
2014-Oct-20 17:00N 50°40' W 138°29'1 1.2 997.3 13.4
2014-Oct-20 16:00N 50°39' W 138°30'0 0.0 997.8 13.3
2014-Oct-20 15:00N 50°39' W 138°30'0 0.1 997.5 13.3
2014-Oct-20 14:00N 50°39' W 138°30'1 0.6 997.8 13.4
2014-Oct-20 13:00N 50°38' W 138°30'0 0.2 997.9 13.4
2014-Oct-20 12:00N 50°38' W 138°30'0 0.3 997.9 13.4
2014-Oct-20 11:00N 50°38' W 138°30'1 1.1 997.6 13.4
2014-Oct-20 10:00N 50°39' W 138°30'0 0.0 997.4 13.4
2014-Oct-20 09:00N 50°39' W 138°30'0 0.0 997.0 13.4
2014-Oct-20 08:00N 50°39' W 138°30'1 1.2 996.3 13.4
2014-Oct-20 07:00N 50°41' W 138°31'2 2.1 995.6 13.4
2014-Oct-20 06:00N 50°40' W 138°34'0 0.0 994.5 13.5
2014-Oct-20 05:00N 50°40' W 138°34'1 0.4 993.6 13.5
2014-Oct-20 03:00N 50°39' W 138°35'1 0.8 992.2 13.6
2014-Oct-20 02:00N 50°39' W 138°36'0 0.3 991.1 13.6
2014-Oct-20 01:00N 50°39' W 138°36'1 0.9 990.2 13.6
2014-Oct-20 00:00N 50°38' W 138°35'1 0.6 989.1 13.6
2014-Oct-19 23:00N 50°39' W 138°35'1 0.8 987.8 13.6
2014-Oct-19 22:00N 50°39' W 138°35'0 0.0 986.9 13.6
2014-Oct-19 21:00N 50°39' W 138°35'0 0.4 985.9 13.6
2014-Oct-19 20:00N 50°40' W 138°34'1 0.7 985.4 13.6
2014-Oct-19 19:00N 50°40' W 138°35'0 0.0 984.6 13.6
2014-Oct-19 18:00N 50°40' W 138°35'0 0.5 983.8 13.5
2014-Oct-19 17:00N 50°40' W 138°35'1 1.1 983.3 13.5
2014-Oct-19 16:00N 50°40' W 138°37'1 0.6 982.8 13.5
2014-Oct-19 15:00N 50°40' W 138°37'0 0.5 982.6 13.5
2014-Oct-19 14:00N 50°40' W 138°37'3 0.8 982.6 13.5
2014-Oct-19 10:00N 50°36' W 138°35'0 0.0 983.7 13.4
2014-Oct-19 07:00N 50°36' W 138°35'0 0.0 984.6 13.5
2014-Oct-19 06:00N 50°36' W 138°35'1 0.6 984.8 13.5
2014-Oct-19 05:00N 50°37' W 138°36'3 3.1 984.7 13.5
2014-Oct-19 04:00N 50°36' W 138°40'0 0.0 985.0 13.6
2014-Oct-19 02:00N 50°36' W 138°40'0 0.0 985.3 13.6
2014-Oct-19 01:00N 50°36' W 138°40'0 0.1 984.8 13.6
2014-Oct-19 00:00N 50°36' W 138°40'1 0.9 984.8 13.6
2014-Oct-18 23:00N 50°35' W 138°41'0 0.0 984.4 13.6
2014-Oct-18 22:00N 50°35' W 138°41'2 2.3 984.0 13.6
2014-Oct-18 21:00N 50°33' W 138°43'2 0.7 983.9 13.6
2014-Oct-18 18:00N 50°32' W 138°41'0 0.3 982.7 13.4
2014-Oct-18 17:00N 50°32' W 138°41'1 0.7 982.3 13.4
2014-Oct-18 16:00N 50°32' W 138°41'1 0.5 982.1 13.4
2014-Oct-18 14:00N 50°32' W 138°43'1 0.6 982.6 13.3
2014-Oct-18 13:00N 50°33' W 138°43'0 0.0 982.8 13.3
2014-Oct-18 12:00N 50°33' W 138°43'4 3.6 983.3 13.2
2014-Oct-18 11:00N 50°29' W 138°45'2 2.3 983.6 13.2
2014-Oct-18 10:00N 50°31' W 138°45'2 0.7 983.7 13.2
2014-Oct-18 07:00N 50°29' W 138°44'1 0.7 986.8 13.3
2014-Oct-18 06:00N 50°29' W 138°44'0 0.0 988.2 13.4
2014-Oct-18 05:00N 50°29' W 138°44'1 0.4 989.4 13.4
2014-Oct-18 02:00N 50°28' W 138°43'1 0.7 991.9 13.4
2014-Oct-18 00:00N 50°27' W 138°45'1 0.8 993.1 13.5
2014-Oct-17 23:00N 50°26' W 138°45'0 0.2 993.5 13.5
2014-Oct-17 22:00N 50°26' W 138°45'0 0.0 994.0 13.5
2014-Oct-17 21:00N 50°26' W 138°45'0 0.5 994.4 13.5
2014-Oct-17 20:00N 50°26' W 138°45'1 0.8 994.7 13.4
2014-Oct-17 19:00N 50°27' W 138°46'0 0.4 994.7 13.4
2014-Oct-17 18:00N 50°27' W 138°45'0 0.0 994.6 13.3
2014-Oct-17 17:00N 50°27' W 138°45'2 2.1 994.6 13.3
2014-Oct-17 16:00N 50°26' W 138°42'3 3.1 994.5 13.3
2014-Oct-17 15:00N 50°28' W 138°46'0 0.3 994.7 13.4
2014-Oct-17 14:00N 50°27' W 138°46'0 0.2 994.5 13.4
2014-Oct-17 13:00N 50°28' W 138°46'1 1.1 994.7 13.4
2014-Oct-17 12:00N 50°28' W 138°48'1 0.9 994.7 13.4
2014-Oct-17 11:00N 50°28' W 138°47'0 0.0 994.9 13.4
2014-Oct-17 07:00N 50°28' W 138°47'1 1.4 995.6 13.5
2014-Oct-17 06:00N 50°29' W 138°45'0 0.0 995.9 13.5
2014-Oct-17 05:00N 50°29' W 138°45'1 1.2 996.3 13.5
2014-Oct-17 04:00N 50°30' W 138°44'0 0.0 996.7 13.6
2014-Oct-17 03:00N 50°30' W 138°44'1 0.6 996.7 13.6
2014-Oct-17 02:00N 50°30' W 138°43'0 0.5 997.1 13.7
2014-Oct-17 01:00N 50°31' W 138°44'1 0.8 997.6 13.7
2014-Oct-17 00:00N 50°30' W 138°45'1 0.9 998.1 13.7
2014-Oct-16 23:00N 50°31' W 138°44'1 0.4 998.6 13.7
2014-Oct-16 21:00N 50°30' W 138°45'1 0.9 999.8 13.8
2014-Oct-16 20:00N 50°29' W 138°45'0 0.2 1000.2 13.7
2014-Oct-16 19:00N 50°30' W 138°45'2 0.3 1000.4 13.7
2014-Oct-16 12:00N 50°31' W 138°43'1 1.2 1000.1 13.7
2014-Oct-16 11:00N 50°30' W 138°44'1 0.4 1000.2 13.6
2014-Oct-16 07:00N 50°30' W 138°46'1 0.5 999.6 13.7
2014-Oct-16 05:00N 50°30' W 138°45'1 0.3 998.8 13.6
2014-Oct-16 03:00N 50°30' W 138°46'1 0.4 997.9 13.6
2014-Oct-16 01:00N 50°29' W 138°47'1 0.3 997.2 13.5
2014-Oct-15 21:00N 50°30' W 138°47'1 0.5 996.8 13.4
2014-Oct-15 19:00N 50°31' W 138°49'0 0.1 996.4 13.4
2014-Oct-15 18:00N 50°30' W 138°48'1 0.7 996.0 13.4
2014-Oct-15 17:00N 50°30' W 138°49'2 1.8 995.7 13.3
2014-Oct-15 16:00N 50°31' W 138°50'1 1.5 995.7 13.3
2014-Oct-15 15:00N 50°31' W 138°52'0 0.0 996.0 13.4
2014-Oct-15 14:00N 50°31' W 138°52'0 0.3 995.5 13.4
2014-Oct-15 13:00N 50°31' W 138°52'2 0.4 995.8 13.4
2014-Oct-15 09:00N 50°31' W 138°54'0 0.0 996.1 13.4
2014-Oct-15 08:00N 50°31' W 138°54'3 1.6 996.3 13.5
2014-Oct-15 06:00N 50°34' W 138°56'0 0.0 996.3 13.5
2014-Oct-15 05:00N 50°34' W 138°56'2 0.8 995.7 13.5
2014-Oct-15 03:00N 50°35' W 138°57'0 0.0 995.6 13.6
2014-Oct-15 02:00N 50°35' W 138°57'2 0.9 995.0 13.6
2014-Oct-15 00:00N 50°36' W 138°59'2 1.5 994.2 13.6
2014-Oct-14 23:00N 50°36' W 139°02'0 0.1 994.3 13.6
2014-Oct-14 22:00N 50°37' W 139°02'1 0.4 994.5 13.6
2014-Oct-14 20:00N 50°37' W 139°03'1 1.0 994.0 13.6
2014-Oct-14 19:00N 50°37' W 139°04'1 1.1 993.6 13.7
2014-Oct-14 18:00N 50°37' W 139°03'0 0.1 993.1 13.6
2014-Oct-14 15:00N 50°37' W 139°02'   992.2 13.6
Track history (hours):
 
Tides and Currents Weather Stations Pressure Air Temp Water Temp Dewpoint Dewpoint Depression Visibility Wind Speed Wind Dir Waves Ship Positions

Drifting buoy 46611

Last reported at 2014-Oct-24 15:00 UTC. Time now 2014-Oct-24 16:55 UTC.
Position N 50°47' W 137°43'.

Barometer 1007.0 mb
Water temperature 12.7 ° C

Date/timePositionNaut miles runAvg speedWind from/ knotsBaromVisibWave heightAir tempDewpointWater temp
2014-Oct-24 15:00N 50°47' W 137°43'0 0.4 1007.0 12.7
2014-Oct-24 14:00N 50°47' W 137°44'0 0.2 1006.5 12.6
2014-Oct-24 13:00N 50°47' W 137°43'2 1.2 1005.9 12.7
2014-Oct-24 11:00N 50°49' W 137°45'0 0.0 1004.6 12.7
2014-Oct-24 09:00N 50°49' W 137°45'0 0.0 1003.1 12.7
2014-Oct-24 07:00N 50°49' W 137°45'0 0.0 1001.9 12.7
2014-Oct-24 06:00N 50°49' W 137°45'0 0.0 1001.2 12.7
2014-Oct-24 05:00N 50°49' W 137°45'0 0.0 1000.4 12.7
2014-Oct-24 04:00N 50°49' W 137°45'0 0.5 999.4 12.7
2014-Oct-24 03:00N 50°49' W 137°45'0 0.0 997.8 12.7
2014-Oct-24 02:00N 50°49' W 137°45'0 0.4 996.0 12.7
2014-Oct-24 01:00N 50°49' W 137°45'1 0.7 993.4 12.7
2014-Oct-23 23:00N 50°48' W 137°47'0 0.0 991.8 12.7
2014-Oct-23 22:00N 50°48' W 137°47'1 0.6 991.9 12.7
2014-Oct-23 20:00N 50°46' W 137°47'1 0.2 995.5 12.7
2014-Oct-23 17:00N 50°47' W 137°48'1 0.6 995.7 12.8
2014-Oct-23 15:00N 50°47' W 137°49'3 1.5 995.5 12.8
2014-Oct-23 13:00N 50°47' W 137°54'4 1.8 994.9 12.8
2014-Oct-23 11:00N 50°45' W 137°50'1 1.5 994.2 12.8
2014-Oct-23 10:00N 50°46' W 137°51'0 0.0 994.0 12.8
2014-Oct-23 07:00N 50°46' W 137°51'0 0.0 993.0 12.9
2014-Oct-23 06:00N 50°46' W 137°51'0 0.2 992.8 12.9
2014-Oct-23 05:00N 50°46' W 137°51'0 0.0 992.5 12.9
2014-Oct-23 04:00N 50°46' W 137°51'0 0.0 992.2 12.9
2014-Oct-23 03:00N 50°46' W 137°51'1 0.6 992.1 12.9
2014-Oct-23 01:00N 50°47' W 137°53'1 0.5 991.3 12.9
2014-Oct-22 23:00N 50°48' W 137°54'3 1.1 991.0 12.9
2014-Oct-22 20:00N 50°45' W 137°57'0 0.0 991.3 12.8
2014-Oct-22 19:00N 50°45' W 137°57'0 0.0 991.3 12.8
2014-Oct-22 17:00N 50°45' W 137°57'0 0.0 991.0 12.9
2014-Oct-22 16:00N 50°45' W 137°57'0 0.4 990.4 12.9
2014-Oct-22 15:00N 50°45' W 137°56'3 3.5 990.5 12.9
2014-Oct-22 14:00N 50°47' W 137°59'0 0.0 990.8 12.9
2014-Oct-22 13:00N 50°47' W 137°59'0 0.0 990.9 12.9
2014-Oct-22 12:00N 50°47' W 137°59'0 0.0 991.2 12.9
2014-Oct-22 11:00N 50°47' W 137°59'0 0.0 991.0 12.9
2014-Oct-22 10:00N 50°47' W 137°59'0 0.0 991.0 12.9
2014-Oct-22 07:00N 50°47' W 137°59'2 2.4 990.1 12.9
2014-Oct-22 06:00N 50°46' W 138°03'2 0.9 989.7 12.9
2014-Oct-22 04:00N 50°44' W 138°02'0 0.0 988.8 12.9
2014-Oct-22 03:00N 50°44' W 138°02'0 0.0 988.4 12.9
2014-Oct-22 02:00N 50°44' W 138°02'0 0.4 988.0 13.0
2014-Oct-22 01:00N 50°45' W 138°02'0 0.1 987.3 13.0
2014-Oct-22 00:00N 50°45' W 138°02'4 2.0 986.6 13.1
2014-Oct-21 22:00N 50°48' W 138°07'7 2.4 985.1 13.0
2014-Oct-21 19:00N 50°48' W 138°18'0 0.1 982.4 13.1
2014-Oct-21 14:00N 50°48' W 138°19'2 1.0 978.1 13.2
2014-Oct-21 12:00N 50°47' W 138°21'1 0.4 977.8 13.3
2014-Oct-21 10:00N 50°47' W 138°23'1 0.3 978.5 13.3
2014-Oct-21 08:00N 50°46' W 138°23'0 0.0 981.2 13.3
2014-Oct-21 07:00N 50°46' W 138°23'2 1.5 982.0 13.3
2014-Oct-21 06:00N 50°45' W 138°25'2 1.5 982.9 13.3
2014-Oct-21 05:00N 50°46' W 138°27'2 1.7 983.7 13.3
2014-Oct-21 04:00N 50°44' W 138°26'0 0.0 983.9 13.3
2014-Oct-21 03:00N 50°44' W 138°26'1 1.3 984.1 13.3
2014-Oct-21 02:00N 50°43' W 138°27'1 0.3 984.9 13.3
2014-Oct-21 00:00N 50°43' W 138°26'1 0.7 988.6 13.4
2014-Oct-20 22:00N 50°42' W 138°27'2 1.6 992.4 13.4
2014-Oct-20 21:00N 50°43' W 138°29'2 2.2 993.8 13.4
2014-Oct-20 20:00N 50°41' W 138°27'2 1.8 995.1 13.4
2014-Oct-20 19:00N 50°40' W 138°29'0 0.1 996.1 13.4
2014-Oct-20 18:00N 50°40' W 138°29'0 0.0 996.7 13.4
2014-Oct-20 17:00N 50°40' W 138°29'1 1.2 997.3 13.4
2014-Oct-20 16:00N 50°39' W 138°30'0 0.0 997.8 13.3
2014-Oct-20 15:00N 50°39' W 138°30'0 0.1 997.5 13.3
2014-Oct-20 14:00N 50°39' W 138°30'1 0.6 997.8 13.4
2014-Oct-20 13:00N 50°38' W 138°30'0 0.2 997.9 13.4
2014-Oct-20 12:00N 50°38' W 138°30'0 0.3 997.9 13.4
2014-Oct-20 11:00N 50°38' W 138°30'1 1.1 997.6 13.4
2014-Oct-20 10:00N 50°39' W 138°30'0 0.0 997.4 13.4
2014-Oct-20 09:00N 50°39' W 138°30'0 0.0 997.0 13.4
2014-Oct-20 08:00N 50°39' W 138°30'1 1.2 996.3 13.4
2014-Oct-20 07:00N 50°41' W 138°31'2 2.1 995.6 13.4
2014-Oct-20 06:00N 50°40' W 138°34'0 0.0 994.5 13.5
2014-Oct-20 05:00N 50°40' W 138°34'1 0.4 993.6 13.5
2014-Oct-20 03:00N 50°39' W 138°35'1 0.8 992.2 13.6
2014-Oct-20 02:00N 50°39' W 138°36'0 0.3 991.1 13.6
2014-Oct-20 01:00N 50°39' W 138°36'1 0.9 990.2 13.6
2014-Oct-20 00:00N 50°38' W 138°35'1 0.6 989.1 13.6
2014-Oct-19 23:00N 50°39' W 138°35'1 0.8 987.8 13.6
2014-Oct-19 22:00N 50°39' W 138°35'0 0.0 986.9 13.6
2014-Oct-19 21:00N 50°39' W 138°35'0 0.4 985.9 13.6
2014-Oct-19 20:00N 50°40' W 138°34'1 0.7 985.4 13.6
2014-Oct-19 19:00N 50°40' W 138°35'0 0.0 984.6 13.6
2014-Oct-19 18:00N 50°40' W 138°35'0 0.5 983.8 13.5
2014-Oct-19 17:00N 50°40' W 138°35'1 1.1 983.3 13.5
2014-Oct-19 16:00N 50°40' W 138°37'1 0.6 982.8 13.5
2014-Oct-19 15:00N 50°40' W 138°37'0 0.5 982.6 13.5
2014-Oct-19 14:00N 50°40' W 138°37'3 0.8 982.6 13.5
2014-Oct-19 10:00N 50°36' W 138°35'0 0.0 983.7 13.4
2014-Oct-19 07:00N 50°36' W 138°35'0 0.0 984.6 13.5
2014-Oct-19 06:00N 50°36' W 138°35'1 0.6 984.8 13.5
2014-Oct-19 05:00N 50°37' W 138°36'3 3.1 984.7 13.5
2014-Oct-19 04:00N 50°36' W 138°40'0 0.0 985.0 13.6
2014-Oct-19 02:00N 50°36' W 138°40'0 0.0 985.3 13.6
2014-Oct-19 01:00N 50°36' W 138°40'0 0.1 984.8 13.6
2014-Oct-19 00:00N 50°36' W 138°40'1 0.9 984.8 13.6
2014-Oct-18 23:00N 50°35' W 138°41'0 0.0 984.4 13.6
2014-Oct-18 22:00N 50°35' W 138°41'2 2.3 984.0 13.6
2014-Oct-18 21:00N 50°33' W 138°43'2 0.7 983.9 13.6
2014-Oct-18 18:00N 50°32' W 138°41'0 0.3 982.7 13.4
2014-Oct-18 17:00N 50°32' W 138°41'1 0.7 982.3 13.4
2014-Oct-18 16:00N 50°32' W 138°41'1 0.5 982.1 13.4
2014-Oct-18 14:00N 50°32' W 138°43'1 0.6 982.6 13.3
2014-Oct-18 13:00N 50°33' W 138°43'0 0.0 982.8 13.3
2014-Oct-18 12:00N 50°33' W 138°43'4 3.6 983.3 13.2
2014-Oct-18 11:00N 50°29' W 138°45'2 2.3 983.6 13.2
2014-Oct-18 10:00N 50°31' W 138°45'2 0.7 983.7 13.2
2014-Oct-18 07:00N 50°29' W 138°44'1 0.7 986.8 13.3
2014-Oct-18 06:00N 50°29' W 138°44'0 0.0 988.2 13.4
2014-Oct-18 05:00N 50°29' W 138°44'1 0.4 989.4 13.4
2014-Oct-18 02:00N 50°28' W 138°43'1 0.7 991.9 13.4
2014-Oct-18 00:00N 50°27' W 138°45'1 0.8 993.1 13.5
2014-Oct-17 23:00N 50°26' W 138°45'0 0.2 993.5 13.5
2014-Oct-17 22:00N 50°26' W 138°45'0 0.0 994.0 13.5
2014-Oct-17 21:00N 50°26' W 138°45'0 0.5 994.4 13.5
2014-Oct-17 20:00N 50°26' W 138°45'1 0.8 994.7 13.4
2014-Oct-17 19:00N 50°27' W 138°46'0 0.4 994.7 13.4
2014-Oct-17 18:00N 50°27' W 138°45'0 0.0 994.6 13.3
2014-Oct-17 17:00N 50°27' W 138°45'2 2.1 994.6 13.3
2014-Oct-17 16:00N 50°26' W 138°42'3 3.1 994.5 13.3
2014-Oct-17 15:00N 50°28' W 138°46'0 0.3 994.7 13.4
2014-Oct-17 14:00N 50°27' W 138°46'0 0.2 994.5 13.4
2014-Oct-17 13:00N 50°28' W 138°46'1 1.1 994.7 13.4
2014-Oct-17 12:00N 50°28' W 138°48'1 0.9 994.7 13.4
2014-Oct-17 11:00N 50°28' W 138°47'0 0.0 994.9 13.4
2014-Oct-17 07:00N 50°28' W 138°47'1 1.4 995.6 13.5
2014-Oct-17 06:00N 50°29' W 138°45'0 0.0 995.9 13.5
2014-Oct-17 05:00N 50°29' W 138°45'1 1.2 996.3 13.5
2014-Oct-17 04:00N 50°30' W 138°44'0 0.0 996.7 13.6
2014-Oct-17 03:00N 50°30' W 138°44'1 0.6 996.7 13.6
2014-Oct-17 02:00N 50°30' W 138°43'0 0.5 997.1 13.7
2014-Oct-17 01:00N 50°31' W 138°44'1 0.8 997.6 13.7
2014-Oct-17 00:00N 50°30' W 138°45'1 0.9 998.1 13.7
2014-Oct-16 23:00N 50°31' W 138°44'1 0.4 998.6 13.7
2014-Oct-16 21:00N 50°30' W 138°45'1 0.9 999.8 13.8
2014-Oct-16 20:00N 50°29' W 138°45'0 0.2 1000.2 13.7
2014-Oct-16 19:00N 50°30' W 138°45'2 0.3 1000.4 13.7
2014-Oct-16 12:00N 50°31' W 138°43'1 1.2 1000.1 13.7
2014-Oct-16 11:00N 50°30' W 138°44'1 0.4 1000.2 13.6
2014-Oct-16 07:00N 50°30' W 138°46'1 0.5 999.6 13.7
2014-Oct-16 05:00N 50°30' W 138°45'1 0.3 998.8 13.6
2014-Oct-16 03:00N 50°30' W 138°46'1 0.4 997.9 13.6
2014-Oct-16 01:00N 50°29' W 138°47'1 0.3 997.2 13.5
2014-Oct-15 21:00N 50°30' W 138°47'1 0.5 996.8 13.4
2014-Oct-15 19:00N 50°31' W 138°49'0 0.1 996.4 13.4
2014-Oct-15 18:00N 50°30' W 138°48'1 0.7 996.0 13.4
2014-Oct-15 17:00N 50°30' W 138°49'2 1.8 995.7 13.3
2014-Oct-15 16:00N 50°31' W 138°50'1 1.5 995.7 13.3
2014-Oct-15 15:00N 50°31' W 138°52'0 0.0 996.0 13.4
2014-Oct-15 14:00N 50°31' W 138°52'0 0.3 995.5 13.4
2014-Oct-15 13:00N 50°31' W 138°52'2 0.4 995.8 13.4
2014-Oct-15 09:00N 50°31' W 138°54'0 0.0 996.1 13.4
2014-Oct-15 08:00N 50°31' W 138°54'3 1.6 996.3 13.5
2014-Oct-15 06:00N 50°34' W 138°56'0 0.0 996.3 13.5
2014-Oct-15 05:00N 50°34' W 138°56'2 0.8 995.7 13.5
2014-Oct-15 03:00N 50°35' W 138°57'0 0.0 995.6 13.6
2014-Oct-15 02:00N 50°35' W 138°57'2 0.9 995.0 13.6
2014-Oct-15 00:00N 50°36' W 138°59'2 1.5 994.2 13.6
2014-Oct-14 23:00N 50°36' W 139°02'0 0.1 994.3 13.6
2014-Oct-14 22:00N 50°37' W 139°02'1 0.4 994.5 13.6
2014-Oct-14 20:00N 50°37' W 139°03'1 1.0 994.0 13.6
2014-Oct-14 19:00N 50°37' W 139°04'1 1.1 993.6 13.7
2014-Oct-14 18:00N 50°37' W 139°03'0 0.1 993.1 13.6
2014-Oct-14 15:00N 50°37' W 139°02'   992.2 13.6

Dump ship's entire track history